SWA1887 KMYR-KBWI
Flight info
| Callsign | SWA1887 |
|---|---|
| Flight time | 0h 59m |
| Altitude | 35000 |
| Route | ZORDO Q111 RUKRR THHMP RAVNN8 |
| Aircraft | B737/M-SDE2E3FGHIRWXY/LB1 |
Departure
| Time | 2026-04-26 20:32 |
|---|---|
| Airport | Myrtle Beach International Airport (KMYR) |
Arrival
| Time | 2026-04-26 21:31 |
|---|---|
| Airport | Baltimore/Washington International Thurgood Marshall Airport (KBWI) |
| Time | Latitude | Longitude | Altitude | Speed | Heading |
|---|---|---|---|---|---|
| 2026-04-26 19:55 | 33.68289 | -78.92424 | 31 ft | 0 kts | 109° |
| 2026-04-26 20:19 | 33.68296 | -78.92448 | 31 ft | 4 kts | 109° |
| 2026-04-26 20:19 | 33.68303 | -78.92472 | 29 ft | 4 kts | 116° |
| 2026-04-26 20:19 | 33.68318 | -78.92494 | 31 ft | 4 kts | 162° |
| 2026-04-26 20:20 | 33.68341 | -78.92500 | 31 ft | 3 kts | 169° |
| 2026-04-26 20:20 | 33.68343 | -78.92501 | 31 ft | 1 kts | 169° |
| 2026-04-26 20:26 | 33.68316 | -78.92494 | 31 ft | 8 kts | 169° |
| 2026-04-26 20:26 | 33.68251 | -78.92492 | 29 ft | 8 kts | 184° |
| 2026-04-26 20:26 | 33.68195 | -78.92501 | 31 ft | 10 kts | 195° |
| 2026-04-26 20:27 | 33.68127 | -78.92572 | 31 ft | 14 kts | 230° |
| 2026-04-26 20:27 | 33.68050 | -78.92638 | 31 ft | 14 kts | 184° |
| 2026-04-26 20:27 | 33.67957 | -78.92623 | 31 ft | 13 kts | 168° |
| 2026-04-26 20:27 | 33.67866 | -78.92600 | 31 ft | 13 kts | 168° |
| 2026-04-26 20:28 | 33.67776 | -78.92578 | 31 ft | 13 kts | 169° |
| 2026-04-26 20:28 | 33.67669 | -78.92552 | 31 ft | 16 kts | 169° |
| 2026-04-26 20:28 | 33.67559 | -78.92527 | 31 ft | 16 kts | 168° |
| 2026-04-26 20:28 | 33.67454 | -78.92503 | 31 ft | 15 kts | 167° |
| 2026-04-26 20:29 | 33.67353 | -78.92477 | 31 ft | 14 kts | 167° |
| 2026-04-26 20:29 | 33.67257 | -78.92452 | 31 ft | 14 kts | 167° |
| 2026-04-26 20:29 | 33.67165 | -78.92427 | 31 ft | 13 kts | 167° |
| 2026-04-26 20:29 | 33.67082 | -78.92385 | 31 ft | 13 kts | 149° |
| 2026-04-26 20:30 | 33.67000 | -78.92348 | 29 ft | 12 kts | 167° |
| 2026-04-26 20:30 | 33.66917 | -78.92325 | 31 ft | 12 kts | 169° |
| 2026-04-26 20:30 | 33.66862 | -78.92311 | 31 ft | 12 kts | 167° |
| 2026-04-26 20:30 | 33.66782 | -78.92293 | 31 ft | 11 kts | 176° |
| 2026-04-26 20:31 | 33.66737 | -78.92349 | 31 ft | 10 kts | 257° |
| 2026-04-26 20:31 | 33.66715 | -78.92485 | 33 ft | 12 kts | 259° |
| 2026-04-26 20:31 | 33.66730 | -78.92520 | 33 ft | 8 kts | 340° |
| 2026-04-26 20:31 | 33.66739 | -78.92523 | 33 ft | 0 kts | 347° |
| 2026-04-26 20:32 | 33.66888 | -78.92560 | 34 ft | 49 kts | 348° |
| 2026-04-26 20:32 | 33.67460 | -78.92703 | 30 ft | 116 kts | 348° |
| 2026-04-26 20:32 | 33.68415 | -78.92911 | 158 ft | 153 kts | 351° |
| 2026-04-26 20:32 | 33.69447 | -78.93180 | 950 ft | 148 kts | 349° |
| 2026-04-26 20:33 | 33.70427 | -78.93512 | 1710 ft | 148 kts | 348° |
| 2026-04-26 20:33 | 33.71481 | -78.93897 | 2156 ft | 168 kts | 348° |
| 2026-04-26 20:33 | 33.72717 | -78.94356 | 2408 ft | 201 kts | 348° |
| 2026-04-26 20:33 | 33.74147 | -78.94883 | 2638 ft | 230 kts | 348° |
| 2026-04-26 20:34 | 33.75752 | -78.95418 | 3047 ft | 251 kts | 353° |
| 2026-04-26 20:34 | 33.77480 | -78.95254 | 3844 ft | 249 kts | 22° |
| 2026-04-26 20:34 | 33.78943 | -78.94171 | 4598 ft | 254 kts | 38° |
| 2026-04-26 20:34 | 33.80318 | -78.92828 | 5503 ft | 256 kts | 39° |
| 2026-04-26 20:35 | 33.81709 | -78.91414 | 6218 ft | 268 kts | 39° |
| 2026-04-26 20:35 | 33.83137 | -78.89948 | 7035 ft | 272 kts | 39° |
| 2026-04-26 20:35 | 33.84590 | -78.88457 | 7873 ft | 278 kts | 39° |
| 2026-04-26 20:35 | 33.86067 | -78.86941 | 8831 ft | 280 kts | 37° |
| 2026-04-26 20:36 | 33.87562 | -78.85409 | 9715 ft | 287 kts | 37° |
| 2026-04-26 20:36 | 33.89106 | -78.83827 | 10402 ft | 299 kts | 36° |
| 2026-04-26 20:36 | 33.90767 | -78.82133 | 10600 ft | 327 kts | 38° |
| 2026-04-26 20:36 | 33.92567 | -78.80307 | 11004 ft | 347 kts | 38° |
| 2026-04-26 20:37 | 33.94433 | -78.78395 | 11661 ft | 356 kts | 37° |
| 2026-04-26 20:37 | 33.96334 | -78.76440 | 12460 ft | 362 kts | 38° |
| 2026-04-26 20:37 | 33.98253 | -78.74466 | 13365 ft | 364 kts | 38° |
| 2026-04-26 20:37 | 34.00191 | -78.72470 | 14150 ft | 370 kts | 38° |
| 2026-04-26 20:38 | 34.02165 | -78.70443 | 14886 ft | 376 kts | 37° |
| 2026-04-26 20:38 | 34.04175 | -78.68379 | 15646 ft | 383 kts | 37° |
| 2026-04-26 20:38 | 34.06221 | -78.66278 | 16395 ft | 390 kts | 38° |
| 2026-04-26 20:38 | 34.08295 | -78.64146 | 17181 ft | 394 kts | 38° |
| 2026-04-26 20:39 | 34.10396 | -78.61986 | 17916 ft | 400 kts | 38° |
| 2026-04-26 20:39 | 34.12529 | -78.59792 | 18590 ft | 406 kts | 37° |
| 2026-04-26 20:39 | 34.14691 | -78.57566 | 19253 ft | 410 kts | 37° |
| 2026-04-26 20:39 | 34.16868 | -78.55323 | 19966 ft | 413 kts | 37° |
| 2026-04-26 20:40 | 34.19066 | -78.53056 | 20649 ft | 417 kts | 37° |
| 2026-04-26 20:40 | 34.21278 | -78.50772 | 21365 ft | 420 kts | 37° |
| 2026-04-26 20:40 | 34.23507 | -78.48471 | 22041 ft | 423 kts | 36° |
| 2026-04-26 20:40 | 34.25756 | -78.46147 | 22670 ft | 428 kts | 36° |
| 2026-04-26 20:41 | 34.28028 | -78.43798 | 23298 ft | 432 kts | 36° |
| 2026-04-26 20:41 | 34.30318 | -78.41430 | 23850 ft | 436 kts | 36° |
| 2026-04-26 20:41 | 34.32603 | -78.39063 | 24337 ft | 440 kts | 36° |
| 2026-04-26 20:41 | 34.34941 | -78.36640 | 24812 ft | 445 kts | 36° |
| 2026-04-26 20:42 | 34.37303 | -78.34190 | 25287 ft | 449 kts | 36° |
| 2026-04-26 20:42 | 34.39688 | -78.31715 | 25753 ft | 453 kts | 36° |
| 2026-04-26 20:42 | 34.42089 | -78.29220 | 26200 ft | 458 kts | 36° |
| 2026-04-26 20:42 | 34.44516 | -78.26696 | 26701 ft | 461 kts | 36° |
| 2026-04-26 20:43 | 34.46958 | -78.24155 | 27175 ft | 464 kts | 36° |
| 2026-04-26 20:43 | 34.49417 | -78.21593 | 27604 ft | 468 kts | 36° |
| 2026-04-26 20:43 | 34.51900 | -78.19005 | 28003 ft | 473 kts | 36° |
| 2026-04-26 20:43 | 34.54406 | -78.16392 | 28417 ft | 477 kts | 36° |
| 2026-04-26 20:44 | 34.56929 | -78.13757 | 28824 ft | 480 kts | 36° |
| 2026-04-26 20:44 | 34.59473 | -78.11099 | 29220 ft | 484 kts | 36° |
| 2026-04-26 20:44 | 34.62032 | -78.08423 | 29601 ft | 488 kts | 36° |
| 2026-04-26 20:44 | 34.64609 | -78.05725 | 29970 ft | 491 kts | 36° |
| 2026-04-26 20:45 | 34.67201 | -78.03008 | 30413 ft | 491 kts | 37° |
| 2026-04-26 20:45 | 34.69773 | -78.00308 | 31041 ft | 486 kts | 37° |
| 2026-04-26 20:45 | 34.72319 | -77.97633 | 31632 ft | 482 kts | 37° |
| 2026-04-26 20:45 | 34.74851 | -77.94973 | 32086 ft | 481 kts | 37° |
| 2026-04-26 20:46 | 34.77393 | -77.92304 | 32380 ft | 484 kts | 37° |
| 2026-04-26 20:46 | 34.79945 | -77.89621 | 32741 ft | 485 kts | 37° |
| 2026-04-26 20:46 | 34.82492 | -77.86941 | 33250 ft | 482 kts | 36° |
| 2026-04-26 20:46 | 34.85165 | -77.84548 | 33759 ft | 473 kts | 26° |
| 2026-04-26 20:47 | 34.88066 | -77.82735 | 34177 ft | 466 kts | 18° |
| 2026-04-26 20:47 | 34.90067 | -77.81811 | 34435 ft | 462 kts | 13° |
| 2026-04-26 20:47 | 34.94182 | -77.80667 | 34896 ft | 455 kts | 6° |
| 2026-04-26 20:47 | 34.97309 | -77.79997 | 35056 ft | 459 kts | 5° |
| 2026-04-26 20:48 | 35.00468 | -77.79341 | 35060 ft | 461 kts | 5° |
| 2026-04-26 20:48 | 35.06778 | -77.77998 | 35053 ft | 458 kts | 5° |
| 2026-04-26 20:49 | 35.13007 | -77.76618 | 35068 ft | 454 kts | 6° |
| 2026-04-26 20:49 | 35.19225 | -77.75223 | 35081 ft | 454 kts | 6° |
| 2026-04-26 20:50 | 35.25446 | -77.73823 | 35073 ft | 455 kts | 6° |
| 2026-04-26 20:50 | 35.31665 | -77.72422 | 35075 ft | 454 kts | 6° |
| 2026-04-26 20:51 | 35.37882 | -77.71020 | 35075 ft | 454 kts | 6° |
| 2026-04-26 20:51 | 35.44106 | -77.69614 | 35090 ft | 455 kts | 6° |
| 2026-04-26 20:52 | 35.50334 | -77.68205 | 35089 ft | 455 kts | 6° |
| 2026-04-26 20:52 | 35.56567 | -77.66793 | 35087 ft | 456 kts | 6° |
| 2026-04-26 20:53 | 35.62806 | -77.65411 | 35101 ft | 455 kts | 5° |
| 2026-04-26 20:53 | 35.69066 | -77.64298 | 35089 ft | 454 kts | 4° |
| 2026-04-26 20:54 | 35.75334 | -77.63247 | 35082 ft | 455 kts | 4° |
| 2026-04-26 20:54 | 35.81594 | -77.62163 | 35091 ft | 454 kts | 4° |
| 2026-04-26 20:55 | 35.87844 | -77.61057 | 35120 ft | 454 kts | 5° |
| 2026-04-26 20:55 | 35.94102 | -77.59941 | 35110 ft | 454 kts | 5° |
| 2026-04-26 20:56 | 36.00354 | -77.58825 | 35101 ft | 454 kts | 5° |
| 2026-04-26 20:56 | 36.06612 | -77.57707 | 35110 ft | 454 kts | 5° |
| 2026-04-26 20:57 | 36.12871 | -77.56587 | 35120 ft | 455 kts | 5° |
| 2026-04-26 20:57 | 36.19147 | -77.55462 | 35114 ft | 456 kts | 5° |
| 2026-04-26 20:58 | 36.25396 | -77.54341 | 35111 ft | 457 kts | 5° |
| 2026-04-26 20:58 | 36.31691 | -77.53208 | 35111 ft | 457 kts | 5° |
| 2026-04-26 20:59 | 36.37993 | -77.52073 | 35115 ft | 458 kts | 5° |
| 2026-04-26 20:59 | 36.44301 | -77.50935 | 35110 ft | 458 kts | 5° |
| 2026-04-26 21:00 | 36.50612 | -77.49795 | 35112 ft | 458 kts | 5° |
| 2026-04-26 21:00 | 36.56928 | -77.48653 | 35145 ft | 458 kts | 5° |
| 2026-04-26 21:01 | 36.63244 | -77.47520 | 35150 ft | 459 kts | 5° |
| 2026-04-26 21:01 | 36.69559 | -77.46386 | 35147 ft | 458 kts | 5° |
| 2026-04-26 21:02 | 36.75870 | -77.45250 | 35148 ft | 458 kts | 6° |
| 2026-04-26 21:02 | 36.82185 | -77.44111 | 35152 ft | 458 kts | 6° |
| 2026-04-26 21:03 | 36.88484 | -77.42972 | 35139 ft | 458 kts | 6° |
| 2026-04-26 21:03 | 36.94782 | -77.41832 | 35132 ft | 456 kts | 6° |
| 2026-04-26 21:04 | 37.01057 | -77.40694 | 35141 ft | 455 kts | 6° |
| 2026-04-26 21:04 | 37.07321 | -77.39557 | 35155 ft | 455 kts | 6° |
| 2026-04-26 21:05 | 37.13586 | -77.38417 | 35076 ft | 456 kts | 6° |
| 2026-04-26 21:05 | 37.16764 | -77.37840 | 34388 ft | 463 kts | 6° |
| 2026-04-26 21:05 | 37.19941 | -77.37261 | 33621 ft | 462 kts | 6° |
| 2026-04-26 21:05 | 37.23127 | -77.36679 | 32788 ft | 461 kts | 6° |
| 2026-04-26 21:06 | 37.26297 | -77.36099 | 31952 ft | 461 kts | 6° |
| 2026-04-26 21:06 | 37.29460 | -77.35520 | 31328 ft | 456 kts | 6° |
| 2026-04-26 21:06 | 37.32574 | -77.34950 | 30711 ft | 450 kts | 6° |
| 2026-04-26 21:06 | 37.35650 | -77.34386 | 30102 ft | 444 kts | 6° |
| 2026-04-26 21:07 | 37.38679 | -77.33830 | 29449 ft | 437 kts | 7° |
| 2026-04-26 21:07 | 37.41663 | -77.33283 | 28850 ft | 429 kts | 7° |
| 2026-04-26 21:07 | 37.44593 | -77.32746 | 28259 ft | 423 kts | 7° |
| 2026-04-26 21:07 | 37.47480 | -77.32216 | 27755 ft | 414 kts | 7° |
| 2026-04-26 21:08 | 37.50273 | -77.31692 | 27447 ft | 402 kts | 8° |
| 2026-04-26 21:08 | 37.53013 | -77.31069 | 26975 ft | 396 kts | 9° |
| 2026-04-26 21:08 | 37.55705 | -77.30403 | 26385 ft | 393 kts | 10° |
| 2026-04-26 21:08 | 37.58377 | -77.29734 | 25840 ft | 389 kts | 10° |
| 2026-04-26 21:09 | 37.61022 | -77.29081 | 25294 ft | 386 kts | 10° |
| 2026-04-26 21:09 | 37.63645 | -77.28442 | 24761 ft | 383 kts | 10° |
| 2026-04-26 21:09 | 37.66249 | -77.27816 | 24239 ft | 380 kts | 10° |
| 2026-04-26 21:09 | 37.68836 | -77.27195 | 23663 ft | 378 kts | 11° |
| 2026-04-26 21:10 | 37.71410 | -77.26575 | 23316 ft | 378 kts | 11° |
| 2026-04-26 21:10 | 37.74002 | -77.25922 | 23212 ft | 380 kts | 11° |
| 2026-04-26 21:10 | 37.76576 | -77.25252 | 23169 ft | 376 kts | 11° |
| 2026-04-26 21:10 | 37.79139 | -77.24580 | 23170 ft | 377 kts | 11° |
| 2026-04-26 21:11 | 37.81710 | -77.23908 | 23167 ft | 378 kts | 11° |
| 2026-04-26 21:11 | 37.84283 | -77.23238 | 23159 ft | 377 kts | 11° |
| 2026-04-26 21:11 | 37.86819 | -77.22579 | 23163 ft | 377 kts | 11° |
| 2026-04-26 21:11 | 37.89388 | -77.21913 | 23163 ft | 377 kts | 11° |
| 2026-04-26 21:12 | 37.91961 | -77.21244 | 22946 ft | 379 kts | 11° |
| 2026-04-26 21:12 | 37.94537 | -77.20575 | 22594 ft | 376 kts | 11° |
| 2026-04-26 21:12 | 37.97083 | -77.19912 | 22254 ft | 371 kts | 11° |
| 2026-04-26 21:12 | 37.99590 | -77.19259 | 21954 ft | 366 kts | 11° |
| 2026-04-26 21:13 | 38.02074 | -77.18612 | 21651 ft | 363 kts | 11° |
| 2026-04-26 21:13 | 38.04538 | -77.17969 | 21351 ft | 360 kts | 11° |
| 2026-04-26 21:13 | 38.07015 | -77.17323 | 21011 ft | 359 kts | 11° |
| 2026-04-26 21:13 | 38.09434 | -77.16692 | 20574 ft | 360 kts | 11° |
| 2026-04-26 21:14 | 38.11892 | -77.16049 | 20135 ft | 361 kts | 11° |
| 2026-04-26 21:14 | 38.14346 | -77.15407 | 19696 ft | 357 kts | 11° |
| 2026-04-26 21:14 | 38.16754 | -77.14777 | 19259 ft | 350 kts | 11° |
| 2026-04-26 21:14 | 38.19120 | -77.14157 | 18840 ft | 344 kts | 11° |
| 2026-04-26 21:15 | 38.21442 | -77.13548 | 18420 ft | 339 kts | 11° |
| 2026-04-26 21:15 | 38.23744 | -77.12945 | 17978 ft | 337 kts | 11° |
| 2026-04-26 21:15 | 38.26053 | -77.12339 | 17459 ft | 341 kts | 11° |
| 2026-04-26 21:15 | 38.28372 | -77.11730 | 17049 ft | 340 kts | 11° |
| 2026-04-26 21:16 | 38.30691 | -77.11124 | 16657 ft | 340 kts | 11° |
| 2026-04-26 21:16 | 38.33009 | -77.10517 | 16265 ft | 339 kts | 11° |
| 2026-04-26 21:16 | 38.35314 | -77.09907 | 15883 ft | 338 kts | 12° |
| 2026-04-26 21:16 | 38.37492 | -77.08837 | 15480 ft | 336 kts | 30° |
| 2026-04-26 21:17 | 38.39424 | -77.07191 | 15132 ft | 332 kts | 33° |
| 2026-04-26 21:17 | 38.41300 | -77.05496 | 14756 ft | 329 kts | 33° |
| 2026-04-26 21:17 | 38.43162 | -77.03799 | 14391 ft | 328 kts | 33° |
| 2026-04-26 21:17 | 38.45017 | -77.02117 | 14025 ft | 327 kts | 33° |
| 2026-04-26 21:18 | 38.46872 | -77.00444 | 13623 ft | 326 kts | 33° |
| 2026-04-26 21:18 | 38.48714 | -76.98781 | 13233 ft | 324 kts | 33° |
| 2026-04-26 21:18 | 38.50402 | -76.96894 | 12929 ft | 322 kts | 44° |
| 2026-04-26 21:18 | 38.51901 | -76.94792 | 12675 ft | 319 kts | 46° |
| 2026-04-26 21:19 | 38.53369 | -76.92660 | 12426 ft | 319 kts | 46° |
| 2026-04-26 21:19 | 38.54838 | -76.90527 | 12171 ft | 322 kts | 46° |
| 2026-04-26 21:19 | 38.55847 | -76.89074 | 11954 ft | 324 kts | 46° |
| 2026-04-26 21:19 | 38.57351 | -76.86921 | 11628 ft | 325 kts | 46° |
| 2026-04-26 21:20 | 38.58853 | -76.84778 | 11288 ft | 319 kts | 45° |
| 2026-04-26 21:20 | 38.60317 | -76.82699 | 10949 ft | 309 kts | 45° |
| 2026-04-26 21:20 | 38.61718 | -76.80710 | 10630 ft | 293 kts | 45° |
| 2026-04-26 21:20 | 38.63047 | -76.78823 | 10334 ft | 278 kts | 45° |
| 2026-04-26 21:21 | 38.64327 | -76.77042 | 10031 ft | 265 kts | 39° |
| 2026-04-26 21:21 | 38.65815 | -76.75730 | 9649 ft | 256 kts | 28° |
| 2026-04-26 21:21 | 38.67353 | -76.74614 | 9350 ft | 254 kts | 28° |
| 2026-04-26 21:21 | 38.68889 | -76.73504 | 9063 ft | 255 kts | 28° |
| 2026-04-26 21:22 | 38.70450 | -76.72365 | 8798 ft | 260 kts | 28° |
| 2026-04-26 21:22 | 38.72016 | -76.71212 | 8507 ft | 259 kts | 29° |
| 2026-04-26 21:22 | 38.73559 | -76.70061 | 8219 ft | 254 kts | 29° |
| 2026-04-26 21:23 | 38.76559 | -76.67806 | 7686 ft | 248 kts | 30° |
| 2026-04-26 21:23 | 38.78039 | -76.66692 | 7443 ft | 246 kts | 30° |
| 2026-04-26 21:23 | 38.79516 | -76.65580 | 7179 ft | 246 kts | 30° |
| 2026-04-26 21:23 | 38.80989 | -76.64469 | 6907 ft | 246 kts | 30° |
| 2026-04-26 21:24 | 38.82459 | -76.63357 | 6648 ft | 244 kts | 31° |
| 2026-04-26 21:24 | 38.83919 | -76.62251 | 6377 ft | 243 kts | 31° |
| 2026-04-26 21:24 | 38.85369 | -76.61148 | 6100 ft | 242 kts | 31° |
| 2026-04-26 21:24 | 38.86809 | -76.60054 | 5835 ft | 239 kts | 31° |
| 2026-04-26 21:25 | 38.88226 | -76.58976 | 5568 ft | 235 kts | 31° |
| 2026-04-26 21:25 | 38.89621 | -76.57916 | 5346 ft | 231 kts | 31° |
| 2026-04-26 21:25 | 38.90992 | -76.56887 | 5117 ft | 226 kts | 28° |
| 2026-04-26 21:25 | 38.92485 | -76.56410 | 5039 ft | 219 kts | 6° |
| 2026-04-26 21:26 | 38.93983 | -76.56437 | 5018 ft | 213 kts | 0° |
| 2026-04-26 21:26 | 38.95479 | -76.56544 | 4648 ft | 226 kts | 0° |
| 2026-04-26 21:26 | 38.97064 | -76.56661 | 4175 ft | 228 kts | 359° |
| 2026-04-26 21:26 | 38.98630 | -76.56772 | 3838 ft | 221 kts | 359° |
| 2026-04-26 21:27 | 39.00125 | -76.56874 | 3561 ft | 210 kts | 360° |
| 2026-04-26 21:27 | 39.01559 | -76.56966 | 3285 ft | 201 kts | 359° |
| 2026-04-26 21:27 | 39.02947 | -76.57054 | 3037 ft | 198 kts | 359° |
| 2026-04-26 21:27 | 39.04293 | -76.57137 | 2822 ft | 189 kts | 359° |
| 2026-04-26 21:28 | 39.05578 | -76.57217 | 2551 ft | 181 kts | 359° |
| 2026-04-26 21:28 | 39.06804 | -76.57450 | 2409 ft | 179 kts | 337° |
| 2026-04-26 21:28 | 39.07858 | -76.58316 | 2282 ft | 183 kts | 330° |
| 2026-04-26 21:28 | 39.08912 | -76.59252 | 2040 ft | 183 kts | 327° |
| 2026-04-26 21:29 | 39.09930 | -76.60196 | 1793 ft | 176 kts | 327° |
| 2026-04-26 21:29 | 39.10887 | -76.61089 | 1564 ft | 161 kts | 327° |
| 2026-04-26 21:29 | 39.11747 | -76.61891 | 1359 ft | 144 kts | 327° |
| 2026-04-26 21:29 | 39.12519 | -76.62610 | 1142 ft | 129 kts | 330° |
| 2026-04-26 21:30 | 39.13228 | -76.63271 | 970 ft | 125 kts | 329° |
| 2026-04-26 21:30 | 39.13947 | -76.63935 | 824 ft | 128 kts | 331° |
| 2026-04-26 21:30 | 39.14674 | -76.64611 | 619 ft | 129 kts | 329° |
| 2026-04-26 21:30 | 39.15411 | -76.65313 | 488 ft | 134 kts | 327° |
| 2026-04-26 21:31 | 39.16165 | -76.66028 | 270 ft | 135 kts | 332° |
| 2026-04-26 21:31 | 39.16909 | -76.66698 | 154 ft | 122 kts | 328° |
| 2026-04-26 21:31 | 39.17489 | -76.67227 | 161 ft | 81 kts | 326° |
| 2026-04-26 21:31 | 39.17761 | -76.67467 | 157 ft | 19 kts | 341° |
| 2026-04-26 21:32 | 39.17839 | -76.67443 | 155 ft | 9 kts | 43° |
| 2026-04-26 21:32 | 39.17861 | -76.67414 | 155 ft | 0 kts | 47° |